createdAt,value
2018-04-23T00:00:00.768Z,10.80
2018-04-23T00:05:03.268Z,14.50
2018-04-23T00:10:05.764Z,9.17
2018-04-23T00:15:09.029Z,12.70
2018-04-23T00:20:11.506Z,8.63
2018-04-23T00:25:14.009Z,12.60
2018-04-23T00:30:16.492Z,8.67
2018-04-23T00:35:19.000Z,14.27
2018-04-23T00:40:21.492Z,9.37
2018-04-23T00:45:23.988Z,13.50
2018-04-23T00:50:26.495Z,9.27
2018-04-23T00:55:28.980Z,9.87
2018-04-23T01:00:31.497Z,8.60
2018-04-23T01:05:33.995Z,10.80
2018-04-23T01:10:36.488Z,7.17
2018-04-23T01:15:39.249Z,6.70
2018-04-23T01:20:41.752Z,8.93
2018-04-23T01:25:44.231Z,14.83
2018-04-23T01:30:46.724Z,15.73
2018-04-23T01:35:49.228Z,13.00
2018-04-23T01:40:51.728Z,10.53
2018-04-23T01:45:54.224Z,12.40
2018-04-23T01:50:56.717Z,9.07
2018-04-23T01:55:59.207Z,9.33
2018-04-23T02:01:01.698Z,10.53
2018-04-23T02:06:04.192Z,11.67
2018-04-23T02:11:06.688Z,7.20
2018-04-23T02:16:09.221Z,13.93
2018-04-23T02:21:11.664Z,9.90
2018-04-23T02:26:14.164Z,15.03
2018-04-23T02:31:16.663Z,6.30
2018-04-23T02:36:19.150Z,8.53
2018-04-23T02:41:21.648Z,6.30
2018-04-23T02:46:24.159Z,10.87
2018-04-23T02:51:27.407Z,9.53
2018-04-23T02:56:29.891Z,10.67
2018-04-23T03:01:32.391Z,13.93
2018-04-23T03:06:34.888Z,9.43
2018-04-23T03:11:37.367Z,7.17
2018-04-23T03:16:39.862Z,6.20
2018-04-23T03:21:42.366Z,11.27
2018-04-23T03:26:44.843Z,7.73
2018-04-23T03:31:47.341Z,10.43
2018-04-23T03:36:49.819Z,16.93
2018-04-23T03:41:52.307Z,14.43
2018-04-23T03:46:54.813Z,16.70
2018-04-23T03:51:57.318Z,13.33
2018-04-23T03:56:59.803Z,16.57
2018-04-23T04:02:02.300Z,20.50
2018-04-23T04:07:04.807Z,14.83
2018-04-23T04:12:20.011Z,21.03
2018-04-23T04:17:33.326Z,23.00
2018-04-23T04:22:35.834Z,18.63
2018-04-23T04:27:38.355Z,20.87
2018-04-23T04:32:40.847Z,20.07
2018-04-23T04:37:44.951Z,26.43
2018-04-23T04:42:47.439Z,21.80
2018-04-23T04:47:49.946Z,20.40
2018-04-23T04:52:52.931Z,24.77
2018-04-23T04:57:55.435Z,27.93
2018-04-23T05:02:57.935Z,24.80
2018-04-23T05:08:00.444Z,27.60
2018-04-23T05:13:02.927Z,25.40
2018-04-23T05:18:05.423Z,29.23
2018-04-23T05:23:07.905Z,27.83
2018-04-23T05:28:10.411Z,29.27
2018-04-23T05:33:12.911Z,24.53
2018-04-23T05:38:15.408Z,24.70
2018-04-23T05:43:17.917Z,27.03
2018-04-23T05:48:20.418Z,27.20
2018-04-23T05:53:22.925Z,20.93
2018-04-23T05:58:25.410Z,19.77
2018-04-23T06:03:27.908Z,24.07
2018-04-23T06:08:30.416Z,21.17
2018-04-23T06:13:32.920Z,19.10
2018-04-23T06:18:36.180Z,28.17
2018-04-23T06:23:38.687Z,14.90
2018-04-23T06:28:41.179Z,19.70
2018-04-23T06:33:43.711Z,22.83
2018-04-23T06:38:46.179Z,22.87
2018-04-23T06:43:49.435Z,20.63
2018-04-23T06:48:52.695Z,18.57
2018-04-23T06:53:55.201Z,21.83
2018-04-23T06:58:58.273Z,16.70
2018-04-23T07:04:00.776Z,26.90
2018-04-23T07:09:03.260Z,22.60
2018-04-23T07:14:05.751Z,31.67
2018-04-23T07:19:08.272Z,22.77
2018-04-23T07:24:10.789Z,16.47
2018-04-23T07:29:13.283Z,20.90
2018-04-23T07:34:15.787Z,19.70
2018-04-23T07:39:18.300Z,23.97
2018-04-23T07:44:20.812Z,21.40
2018-04-23T07:49:23.313Z,22.90
2018-04-23T07:54:26.564Z,23.80
2018-04-23T07:59:29.828Z,21.13
2018-04-23T08:04:32.339Z,24.63
2018-04-23T08:09:35.599Z,26.70
2018-04-23T08:14:38.108Z,24.27
2018-04-23T08:19:40.611Z,23.30
2018-04-23T08:24:43.100Z,24.63
2018-04-23T08:29:45.599Z,25.60
2018-04-23T08:34:48.099Z,24.70
2018-04-23T08:39:50.617Z,24.63
2018-04-23T08:44:53.887Z,20.80
2018-04-23T08:49:56.388Z,19.77
2018-04-23T08:54:58.888Z,20.40
2018-04-23T09:00:01.428Z,19.10
2018-04-23T09:05:03.892Z,19.83
2018-04-23T09:10:06.512Z,18.10
2018-04-23T09:15:08.987Z,15.27
2018-04-23T09:20:11.488Z,10.30
2018-04-23T09:25:13.978Z,15.90
2018-04-23T09:30:16.468Z,16.47
2018-04-23T09:35:18.956Z,10.30
2018-04-23T09:40:21.448Z,17.00
2018-04-23T09:45:23.956Z,8.20
2018-04-23T09:50:26.448Z,7.50
2018-04-23T09:55:28.947Z,9.53
2018-04-23T10:00:31.450Z,11.77
2018-04-23T10:05:33.943Z,8.27
2018-04-23T10:10:36.456Z,9.87
2018-04-23T10:15:39.721Z,13.20
2018-04-23T10:20:42.220Z,16.30
2018-04-23T10:25:44.731Z,9.60
2018-04-23T10:30:47.211Z,16.50
2018-04-23T10:35:49.699Z,10.13
2018-04-23T10:40:52.199Z,7.33
2018-04-23T10:45:54.692Z,7.60
2018-04-23T10:50:57.200Z,10.10
2018-04-23T10:55:59.672Z,9.77
2018-04-23T11:01:02.161Z,12.60
2018-04-23T11:06:04.651Z,7.43
2018-04-23T11:11:07.160Z,10.53
2018-04-23T11:16:09.651Z,7.50
2018-04-23T11:21:12.200Z,9.80
2018-04-23T11:26:14.701Z,11.40
2018-04-23T11:31:17.957Z,10.60
2018-04-23T11:36:20.441Z,8.00
2018-04-23T11:41:22.937Z,8.23
2018-04-23T11:46:25.428Z,9.80
2018-04-23T11:51:27.909Z,7.03
2018-04-23T11:56:30.404Z,9.50
2018-04-23T12:01:32.932Z,8.00
2018-04-23T12:06:35.408Z,9.17
2018-04-23T12:11:37.908Z,10.67
2018-04-23T12:16:40.401Z,9.13
2018-04-23T12:21:42.938Z,21.93
2018-04-23T12:26:45.406Z,13.13
2018-04-23T12:31:47.891Z,19.40
2018-04-23T12:36:50.375Z,11.87
2018-04-23T12:41:52.857Z,10.90
2018-04-23T12:46:55.340Z,11.00
2018-04-23T12:51:57.823Z,11.83
2018-04-23T12:57:00.315Z,9.97
2018-04-23T13:02:02.808Z,11.70
2018-04-23T13:07:05.304Z,9.40
2018-04-23T13:12:07.922Z,9.63
2018-04-23T13:17:10.408Z,10.20
2018-04-23T13:22:12.912Z,10.17
2018-04-23T13:27:15.416Z,7.70
2018-04-23T13:32:17.899Z,7.27
2018-04-23T13:37:20.395Z,9.77
2018-04-23T13:42:22.881Z,7.50
2018-04-23T13:47:25.380Z,9.63
2018-04-23T13:52:27.864Z,7.53
2018-04-23T13:57:30.347Z,6.37
2018-04-23T14:02:32.852Z,9.70
2018-04-23T14:07:35.347Z,11.10
2018-04-23T14:12:37.851Z,7.80
2018-04-23T14:17:40.385Z,7.10
2018-04-23T14:22:42.887Z,6.73
2018-04-23T14:27:46.148Z,8.83
2018-04-23T14:32:48.637Z,7.00
2018-04-23T14:37:51.159Z,5.67
2018-04-23T14:42:53.648Z,5.40
2018-04-23T14:47:56.147Z,8.73
2018-04-23T14:52:58.644Z,5.40
2018-04-23T14:58:01.132Z,6.43
2018-04-23T15:03:03.687Z,13.13
2018-04-23T15:08:06.175Z,5.40
2018-04-23T15:13:08.660Z,4.30
2018-04-23T15:18:11.139Z,7.60
2018-04-23T15:23:13.627Z,7.97
2018-04-23T15:28:16.886Z,5.80
2018-04-23T15:33:19.387Z,16.13
2018-04-23T15:38:21.864Z,6.30
2018-04-23T15:43:24.350Z,12.80
2018-04-23T15:48:27.595Z,8.50
2018-04-23T15:53:30.103Z,16.33
2018-04-23T15:58:33.365Z,12.80
2018-04-23T16:03:35.856Z,12.20
2018-04-23T16:08:38.353Z,7.00
2018-04-23T16:13:40.849Z,12.37
2018-04-23T16:18:43.352Z,13.10
2018-04-23T16:23:45.856Z,9.40
2018-04-23T16:28:48.343Z,11.97
2018-04-23T16:33:50.851Z,14.90
2018-04-23T16:38:54.122Z,13.63
2018-04-23T16:43:56.619Z,12.70
2018-04-23T16:48:59.163Z,8.20
2018-04-23T16:54:02.413Z,9.50
2018-04-23T16:59:04.899Z,8.80
2018-04-23T17:04:07.391Z,8.90
2018-04-23T17:09:09.892Z,13.63
2018-04-23T17:14:12.399Z,7.20
2018-04-23T17:19:14.899Z,10.63
2018-04-23T17:24:17.452Z,10.47
2018-04-23T17:29:19.940Z,5.60
2018-04-23T17:34:22.425Z,7.00
2018-04-23T17:39:24.911Z,9.27
2018-04-23T17:44:28.172Z,8.13
2018-04-23T17:49:30.663Z,8.90
2018-04-23T17:54:33.162Z,7.90
2018-04-23T17:59:35.637Z,8.10
2018-04-23T18:04:38.123Z,9.53
2018-04-23T18:09:40.603Z,9.17
2018-04-23T18:14:43.096Z,6.20
2018-04-23T18:19:45.589Z,7.43
2018-04-23T18:24:48.098Z,9.93
2018-04-23T18:29:50.614Z,5.40
2018-04-23T18:34:53.111Z,4.27
2018-04-23T18:39:55.599Z,3.70
2018-04-23T18:44:58.084Z,4.50
2018-04-23T18:50:00.571Z,5.73
2018-04-23T18:55:03.068Z,5.27
2018-04-23T19:00:05.566Z,5.50
2018-04-23T19:05:08.052Z,3.43
2018-04-23T19:10:10.552Z,8.10
2018-04-23T19:15:13.043Z,3.00
2018-04-23T19:20:15.531Z,3.97
2018-04-23T19:25:18.035Z,5.93
2018-04-23T19:30:20.539Z,3.20
2018-04-23T19:35:23.016Z,3.30
2018-04-23T19:40:25.516Z,3.47
2018-04-23T19:45:28.010Z,3.20
2018-04-23T19:50:30.492Z,5.50
2018-04-23T19:55:32.985Z,4.73
2018-04-23T20:00:35.497Z,6.67
2018-04-23T20:05:37.975Z,4.03
2018-04-23T20:10:40.460Z,3.47
2018-04-23T20:15:42.944Z,5.07
2018-04-23T20:20:45.466Z,3.87
2018-04-23T20:25:47.951Z,1.87
2018-04-23T20:30:50.436Z,2.40
2018-04-23T20:35:52.944Z,3.17
2018-04-23T20:40:55.436Z,3.50
2018-04-23T20:45:57.931Z,2.90
2018-04-23T20:51:00.415Z,3.57
2018-04-23T20:56:02.907Z,3.97
2018-04-23T21:01:05.403Z,2.83
2018-04-23T21:06:07.896Z,4.10
2018-04-23T21:11:10.481Z,3.80
2018-04-23T21:16:12.903Z,5.03
2018-04-23T21:21:16.163Z,3.23
2018-04-23T21:26:18.663Z,5.17
2018-04-23T21:31:21.147Z,3.57
2018-04-23T21:36:23.623Z,3.67
2018-04-23T21:41:26.118Z,3.53
2018-04-23T21:46:28.591Z,4.70
2018-04-23T21:51:31.077Z,5.53
2018-04-23T21:56:34.328Z,5.90
2018-04-23T22:01:36.814Z,4.73
2018-04-23T22:06:39.311Z,5.07
2018-04-23T22:11:41.812Z,4.80
2018-04-23T22:16:44.288Z,3.83
2018-04-23T22:21:46.783Z,4.03
2018-04-23T22:26:49.279Z,4.47
2018-04-23T22:31:51.783Z,7.67
2018-04-23T22:36:54.263Z,4.57
2018-04-23T22:41:56.771Z,4.00
2018-04-23T22:46:59.260Z,3.77
2018-04-23T22:52:01.759Z,4.77
2018-04-23T22:57:04.247Z,3.43
2018-04-23T23:07:32.884Z,3.83
2018-04-23T23:12:35.360Z,6.17
2018-04-23T23:17:37.839Z,7.30
2018-04-23T23:22:40.327Z,5.57
2018-04-23T23:27:42.811Z,4.87
2018-04-23T23:32:45.299Z,6.47
2018-04-23T23:37:48.543Z,4.47
2018-04-23T23:42:51.027Z,6.10
2018-04-23T23:47:53.512Z,6.53
2018-04-23T23:52:55.999Z,6.77
2018-04-23T23:57:58.492Z,6.30
